createdAt,value
2018-11-12T00:25:00.419Z,16.5
2018-11-12T00:25:49.061Z,16.5
2018-11-12T00:26:39.044Z,16.5
2018-11-12T00:27:29.559Z,16.5
2018-11-12T00:28:18.962Z,16.5
2018-11-12T00:29:10.754Z,16.5
2018-11-12T00:30:01.035Z,16.5
2018-11-12T00:30:50.266Z,16.5
2018-11-12T00:31:40.369Z,16.6
2018-11-12T00:32:30.081Z,16.6
2018-11-12T00:33:19.382Z,16.6
2018-11-12T00:34:08.880Z,16.6
2018-11-12T00:34:59.371Z,16.6
2018-11-12T00:35:48.524Z,16.6
2018-11-12T00:36:38.949Z,16.6
2018-11-12T00:37:29.123Z,16.6
2018-11-12T00:38:18.786Z,16.6
2018-11-12T00:39:09.831Z,16.6
2018-11-12T00:40:02.099Z,16.6
2018-11-12T00:40:50.261Z,16.6
2018-11-12T00:41:40.284Z,16.6
2018-11-12T00:42:30.378Z,16.6
2018-11-12T00:43:21.246Z,16.6
2018-11-12T00:44:11.047Z,16.6
2018-11-12T00:45:00.411Z,16.6
2018-11-12T00:45:51.360Z,16.6
2018-11-12T00:46:40.893Z,16.6
2018-11-12T00:47:31.570Z,16.6
2018-11-12T00:48:20.182Z,16.6
2018-11-12T00:49:11.195Z,16.6
2018-11-12T00:50:01.445Z,16.6
2018-11-12T00:50:50.887Z,16.6
2018-11-12T00:51:40.528Z,16.7
2018-11-12T00:52:30.016Z,16.7
2018-11-12T00:53:21.095Z,16.7
2018-11-12T00:54:10.204Z,16.6
2018-11-12T00:55:01.705Z,16.7
2018-11-12T00:55:51.873Z,16.6
2018-11-12T00:56:40.894Z,16.6
2018-11-12T00:57:31.635Z,16.7
2018-11-12T00:58:21.489Z,16.7
2018-11-12T00:59:10.762Z,16.7
2018-11-12T01:00:01.324Z,16.7
2018-11-12T01:00:54.081Z,16.6
2018-11-12T01:01:40.760Z,16.6
2018-11-12T01:02:31.605Z,16.7
2018-11-12T01:03:20.522Z,16.7
2018-11-12T01:04:13.525Z,16.7
2018-11-12T01:05:01.477Z,16.7
2018-11-12T01:05:53.057Z,16.7
2018-11-12T01:06:42.593Z,16.7
2018-11-12T01:07:32.522Z,16.7
2018-11-12T01:08:22.472Z,16.6
2018-11-12T01:09:11.665Z,16.6
2018-11-12T01:10:02.329Z,16.7
2018-11-12T01:10:52.169Z,16.6
2018-11-12T01:11:42.005Z,16.7
2018-11-12T01:12:32.206Z,16.7
2018-11-12T01:13:21.834Z,16.6
2018-11-12T01:14:12.658Z,16.6
2018-11-12T01:15:02.457Z,16.6
2018-11-12T01:15:52.245Z,16.6
2018-11-12T01:16:42.874Z,16.6
2018-11-12T01:17:33.205Z,16.6
2018-11-12T01:18:21.664Z,16.6
2018-11-12T01:19:12.062Z,16.6
2018-11-12T01:20:03.558Z,16.6
2018-11-12T01:20:53.526Z,16.6
2018-11-12T01:21:43.076Z,16.6
2018-11-12T01:22:32.689Z,16.6
2018-11-12T01:23:22.213Z,16.6
2018-11-12T01:24:11.896Z,16.6
2018-11-12T01:25:03.103Z,16.6
2018-11-12T01:25:53.733Z,16.6
2018-11-12T01:26:43.613Z,16.6
2018-11-12T01:27:33.133Z,16.6
2018-11-12T01:28:22.656Z,16.6
2018-11-12T01:29:13.852Z,16.6
2018-11-12T01:30:03.103Z,16.6
2018-11-12T01:30:54.821Z,16.6
2018-11-12T01:31:44.757Z,16.6
2018-11-12T01:32:33.921Z,16.6
2018-11-12T01:33:24.335Z,16.6
2018-11-12T01:34:14.575Z,16.6
2018-11-12T01:35:04.219Z,16.6
2018-11-12T01:35:53.812Z,16.6
2018-11-12T01:36:44.650Z,16.6
2018-11-12T01:37:35.038Z,16.6
2018-11-12T01:38:25.425Z,16.6
2018-11-12T01:39:14.921Z,16.6
2018-11-12T01:40:04.155Z,16.6
2018-11-12T01:40:54.537Z,16.6
2018-11-12T01:41:45.828Z,16.6
2018-11-12T01:42:34.735Z,16.6
2018-11-12T01:43:24.696Z,16.6
2018-11-12T01:44:15.345Z,16.6
2018-11-12T01:45:04.702Z,16.6
2018-11-12T01:45:55.070Z,16.6
2018-11-12T01:46:44.417Z,16.6
2018-11-12T01:47:35.659Z,16.6
2018-11-12T01:48:25.395Z,16.6
2018-11-12T01:49:15.820Z,16.6
2018-11-12T01:50:04.759Z,16.6
2018-11-12T01:50:55.139Z,16.6
2018-11-12T01:51:45.871Z,16.6
2018-11-12T01:52:36.095Z,16.6
2018-11-12T01:53:25.317Z,16.6
2018-11-12T01:54:15.599Z,16.6
2018-11-12T01:55:05.819Z,16.6
2018-11-12T01:55:56.316Z,16.6
2018-11-12T01:56:45.132Z,16.6
2018-11-12T01:57:36.133Z,16.6
2018-11-12T01:58:26.242Z,16.6
2018-11-12T01:59:15.007Z,16.6
2018-11-12T02:00:05.974Z,16.6
2018-11-12T02:00:56.898Z,16.6
2018-11-12T02:01:47.686Z,16.6
2018-11-12T02:02:35.821Z,16.6
2018-11-12T02:03:26.894Z,16.6
2018-11-12T02:04:16.529Z,16.6
2018-11-12T02:05:07.191Z,16.6
2018-11-12T02:05:57.156Z,16.6
2018-11-12T02:06:46.814Z,16.6
2018-11-12T02:07:36.608Z,16.6
2018-11-12T02:08:26.388Z,16.6
2018-11-12T02:09:17.155Z,16.6
2018-11-12T02:10:06.966Z,16.6
2018-11-12T02:10:57.111Z,16.6
2018-11-12T02:11:46.571Z,16.6
2018-11-12T02:12:36.465Z,16.6
2018-11-12T02:13:27.396Z,16.6
2018-11-12T02:14:16.278Z,16.6
2018-11-12T02:15:07.162Z,16.6
2018-11-12T02:15:56.488Z,16.6
2018-11-12T02:16:48.023Z,16.6
2018-11-12T02:17:37.138Z,16.6
2018-11-12T02:18:25.345Z,16.6
2018-11-12T02:19:18.051Z,16.6
2018-11-12T02:20:06.411Z,16.6
2018-11-12T02:20:57.360Z,16.6
2018-11-12T02:21:48.070Z,16.6
2018-11-12T02:22:38.269Z,16.6
2018-11-12T02:23:26.927Z,16.6
2018-11-12T02:24:17.297Z,16.6
2018-11-12T02:25:07.830Z,16.6
2018-11-12T02:25:58.081Z,16.6
2018-11-12T02:26:47.681Z,16.6
2018-11-12T02:27:38.719Z,16.6
2018-11-12T02:28:28.452Z,16.6
2018-11-12T02:29:18.327Z,16.6
2018-11-12T02:30:09.172Z,16.6
2018-11-12T02:30:57.961Z,16.6
2018-11-12T02:31:48.494Z,16.6
2018-11-12T02:32:38.417Z,16.6
2018-11-12T02:33:30.961Z,16.6
2018-11-12T02:34:17.612Z,16.6
2018-11-12T02:35:08.652Z,16.6
2018-11-12T02:35:58.482Z,16.6
2018-11-12T02:36:49.039Z,16.6
2018-11-12T02:37:40.203Z,16.6
2018-11-12T02:38:29.184Z,16.6
2018-11-12T02:39:19.242Z,16.6
2018-11-12T02:40:08.722Z,16.6
2018-11-12T02:40:59.177Z,16.5
2018-11-12T02:41:49.442Z,16.6
2018-11-12T02:42:39.207Z,16.5
2018-11-12T02:43:29.037Z,16.6
2018-11-12T02:44:18.966Z,16.5
2018-11-12T02:45:09.576Z,16.5
2018-11-12T02:45:58.830Z,16.5
2018-11-12T02:46:49.195Z,16.6
2018-11-12T02:47:39.761Z,16.5
2018-11-12T02:48:29.369Z,16.6
2018-11-12T02:49:20.701Z,16.5
2018-11-12T02:50:08.992Z,16.5
2018-11-12T02:50:59.291Z,16.5
2018-11-12T02:51:50.321Z,16.6
2018-11-12T02:52:40.116Z,16.6
2018-11-12T02:53:29.253Z,16.5
2018-11-12T02:54:20.053Z,16.6
2018-11-12T02:55:10.380Z,16.6
2018-11-12T02:55:59.647Z,16.5
2018-11-12T02:56:48.894Z,16.5
2018-11-12T02:57:41.504Z,16.5
2018-11-12T02:58:30.553Z,16.6
2018-11-12T02:59:19.918Z,16.5
2018-11-12T03:00:11.276Z,16.5
2018-11-12T03:01:00.516Z,16.5
2018-11-12T03:01:50.968Z,16.5
2018-11-12T03:02:41.103Z,16.6
2018-11-12T03:03:31.062Z,16.5
2018-11-12T03:04:19.530Z,16.5
2018-11-12T03:05:11.609Z,16.5
2018-11-12T03:06:00.073Z,16.5
2018-11-12T03:06:51.269Z,16.5
2018-11-12T03:07:41.295Z,16.5
2018-11-12T03:08:31.632Z,16.5
2018-11-12T03:09:21.620Z,16.5
2018-11-12T03:10:11.713Z,16.5
2018-11-12T03:11:00.686Z,16.5
2018-11-12T03:11:51.270Z,16.5
2018-11-12T03:12:40.895Z,16.5
2018-11-12T03:13:30.103Z,16.5
2018-11-12T03:14:21.401Z,16.5
2018-11-12T03:15:11.567Z,16.5
2018-11-12T03:16:02.751Z,16.5
2018-11-12T03:16:51.704Z,16.5
2018-11-12T03:17:41.427Z,16.5
2018-11-12T03:18:32.058Z,16.5
2018-11-12T03:19:21.758Z,16.5
2018-11-12T03:20:10.755Z,16.5
2018-11-12T03:21:02.614Z,16.4
2018-11-12T03:21:51.687Z,16.4
2018-11-12T03:22:42.609Z,16.5
2018-11-12T03:23:32.199Z,16.5
2018-11-12T03:24:21.359Z,16.4
2018-11-12T03:25:12.511Z,16.5
2018-11-12T03:26:02.334Z,16.5
2018-11-12T03:26:52.796Z,16.4
2018-11-12T03:27:44.188Z,16.5
2018-11-12T03:28:33.017Z,16.5
2018-11-12T03:29:22.744Z,16.5
2018-11-12T03:30:12.977Z,16.5
2018-11-12T03:31:02.482Z,16.4
2018-11-12T03:31:52.511Z,16.5
2018-11-12T03:32:43.356Z,16.4
2018-11-12T03:33:32.682Z,16.4
2018-11-12T03:34:23.494Z,16.5
2018-11-12T03:35:13.438Z,16.4
2018-11-12T03:36:02.831Z,16.4
2018-11-12T03:36:53.109Z,16.4
2018-11-12T03:37:42.361Z,16.5
2018-11-12T03:38:31.964Z,16.5
2018-11-12T03:39:24.106Z,16.5
2018-11-12T03:40:12.924Z,16.4
2018-11-12T03:41:03.396Z,16.4
2018-11-12T03:41:53.549Z,16.5
2018-11-12T03:42:42.890Z,16.4
2018-11-12T03:43:33.118Z,16.4
2018-11-12T03:44:23.688Z,16.4
2018-11-12T03:45:13.363Z,16.4
2018-11-12T03:46:04.088Z,16.4
2018-11-12T03:46:54.448Z,16.4
2018-11-12T03:47:44.383Z,16.4
2018-11-12T03:48:35.042Z,16.4
2018-11-12T03:49:23.151Z,16.4
2018-11-12T03:50:14.452Z,16.5
2018-11-12T03:51:04.575Z,16.4
2018-11-12T03:51:54.677Z,16.4
2018-11-12T03:52:43.725Z,16.4
2018-11-12T03:53:34.449Z,16.4
2018-11-12T03:54:24.400Z,16.5
2018-11-12T03:55:14.617Z,16.4
2018-11-12T03:56:04.726Z,16.4
2018-11-12T03:56:55.065Z,16.4
2018-11-12T03:57:44.225Z,16.4
2018-11-12T03:58:34.421Z,16.4
2018-11-12T03:59:24.783Z,16.4
2018-11-12T04:00:16.702Z,16.4
2018-11-12T04:01:03.805Z,16.4
2018-11-12T04:01:54.865Z,16.4
2018-11-12T04:02:45.092Z,16.4
2018-11-12T04:03:35.022Z,16.4
2018-11-12T04:04:25.950Z,16.4
2018-11-12T04:05:15.594Z,16.4
2018-11-12T04:06:04.923Z,16.4
2018-11-12T04:06:56.078Z,16.4
2018-11-12T04:07:46.154Z,16.4
2018-11-12T04:08:35.822Z,16.4
2018-11-12T04:09:25.948Z,16.4
2018-11-12T04:10:15.894Z,16.4
2018-11-12T04:11:04.802Z,16.4
2018-11-12T04:11:55.013Z,16.4
2018-11-12T04:12:45.974Z,16.4
2018-11-12T04:13:35.741Z,16.4
2018-11-12T04:14:25.746Z,16.4
2018-11-12T04:15:16.061Z,16.4
2018-11-12T04:16:06.961Z,16.4
2018-11-12T04:16:56.501Z,16.4
2018-11-12T04:17:46.634Z,16.4
2018-11-12T04:18:36.028Z,16.4
2018-11-12T04:19:25.624Z,16.4
2018-11-12T04:20:15.861Z,16.4
2018-11-12T04:21:05.966Z,16.4
2018-11-12T04:21:56.727Z,16.4
2018-11-12T04:22:46.212Z,16.4
2018-11-12T04:23:36.153Z,16.4
2018-11-12T04:24:26.418Z,16.4
2018-11-12T04:25:17.967Z,16.4
2018-11-12T04:26:06.006Z,16.4
2018-11-12T04:26:56.713Z,16.4
2018-11-12T04:27:46.972Z,16.4
2018-11-12T04:28:37.295Z,16.4
2018-11-12T04:29:26.491Z,16.4
2018-11-12T04:30:17.163Z,16.4
2018-11-12T04:31:06.880Z,16.4
2018-11-12T04:31:57.358Z,16.4
2018-11-12T04:32:47.664Z,16.4
2018-11-12T04:33:37.586Z,16.4
2018-11-12T04:34:26.963Z,16.4
2018-11-12T04:35:17.498Z,16.4
2018-11-12T04:36:06.966Z,16.4
2018-11-12T04:36:57.580Z,16.4
2018-11-12T04:54:15.367Z,16.2
2018-11-12T04:55:07.260Z,16.2
2018-11-12T04:55:56.501Z,16.1
2018-11-12T04:56:46.569Z,16.2
2018-11-12T04:57:36.145Z,16.2
2018-11-12T04:58:25.771Z,16.2
2018-11-12T04:59:17.499Z,16.2
2018-11-12T05:00:06.819Z,16.2
2018-11-12T05:00:56.599Z,16.2
2018-11-12T05:01:47.702Z,16.2
2018-11-12T05:02:36.831Z,16.2
2018-11-12T05:03:26.784Z,16.2
2018-11-12T05:04:16.820Z,16.3
2018-11-12T05:05:07.932Z,16.3
2018-11-12T05:05:57.202Z,16.3
2018-11-12T05:06:47.254Z,16.3
2018-11-12T05:07:39.498Z,16.3
2018-11-12T05:08:26.291Z,16.3
2018-11-12T05:09:17.246Z,16.3
2018-11-12T05:10:06.818Z,16.3
2018-11-12T05:10:57.001Z,16.3
2018-11-12T05:11:47.656Z,16.3
2018-11-12T05:12:38.185Z,16.3
2018-11-12T05:13:27.495Z,16.3
2018-11-12T05:14:17.548Z,16.3
2018-11-12T05:15:07.334Z,16.3
2018-11-12T05:15:58.729Z,16.3
2018-11-12T05:16:49.326Z,16.3
2018-11-12T05:17:37.003Z,16.3
2018-11-12T05:18:27.599Z,16.3
2018-11-12T05:19:17.600Z,16.3
2018-11-12T05:20:08.595Z,16.3
2018-11-12T05:20:57.898Z,16.3
2018-11-12T05:21:49.155Z,16.3
2018-11-12T05:22:37.500Z,16.3
2018-11-12T05:23:27.818Z,16.3
2018-11-12T05:24:19.275Z,16.3
2018-11-12T05:25:08.457Z,16.3
2018-11-12T05:25:58.844Z,16.3
2018-11-12T05:26:48.145Z,16.3
2018-11-12T05:27:38.540Z,16.3
2018-11-12T05:28:29.417Z,16.3
2018-11-12T05:29:19.382Z,16.3
2018-11-12T05:30:09.119Z,16.3
2018-11-12T05:30:58.358Z,16.3
2018-11-12T05:31:48.011Z,16.3
2018-11-12T05:32:38.775Z,16.3
2018-11-12T05:33:28.334Z,16.3
2018-11-12T05:34:18.453Z,16.3
2018-11-12T05:35:09.337Z,16.3
2018-11-12T05:35:59.170Z,16.3
2018-11-12T05:36:49.189Z,16.3
2018-11-12T05:37:39.665Z,16.3
2018-11-12T05:38:31.225Z,16.3
2018-11-12T05:39:19.835Z,16.3
2018-11-12T05:40:09.609Z,16.3
2018-11-12T05:40:59.803Z,16.3
2018-11-12T05:41:50.281Z,16.3
2018-11-12T05:42:39.261Z,16.3
2018-11-12T05:43:30.214Z,16.3
2018-11-12T05:44:19.661Z,16.3
2018-11-12T05:45:11.530Z,16.3
2018-11-12T05:45:59.797Z,16.3
2018-11-12T05:46:49.267Z,16.3
2018-11-12T05:47:39.814Z,16.3
2018-11-12T05:48:30.500Z,16.3
2018-11-12T05:49:20.069Z,16.3
2018-11-12T05:50:11.229Z,16.3
2018-11-12T05:51:00.734Z,16.3
2018-11-12T05:51:50.994Z,16.3
2018-11-12T05:52:40.254Z,16.3
2018-11-12T05:53:31.048Z,16.3
2018-11-12T05:54:21.184Z,16.3
2018-11-12T05:55:10.371Z,16.3
2018-11-12T05:56:01.616Z,16.3
2018-11-12T05:56:50.998Z,16.3
2018-11-12T05:57:40.991Z,16.3
2018-11-12T05:58:30.533Z,16.3
2018-11-12T05:59:20.740Z,16.3
2018-11-12T06:00:10.258Z,16.3
2018-11-12T06:01:00.029Z,16.3
2018-11-12T06:01:51.241Z,16.3
2018-11-12T06:02:40.235Z,16.3
2018-11-12T06:03:31.310Z,16.3
2018-11-12T06:04:20.619Z,16.3
2018-11-12T06:05:11.333Z,16.3
2018-11-12T06:06:01.761Z,16.3
2018-11-12T06:06:51.243Z,16.3
2018-11-12T06:07:40.913Z,16.2
2018-11-12T06:08:32.238Z,16.3
2018-11-12T06:09:21.080Z,16.2
2018-11-12T06:10:10.964Z,16.2
2018-11-12T06:11:02.148Z,16.2
2018-11-12T06:11:51.903Z,16.2
2018-11-12T06:12:41.905Z,16.2
2018-11-12T06:13:31.785Z,16.2
2018-11-12T06:14:22.942Z,16.2
2018-11-12T06:15:11.042Z,16.2
2018-11-12T06:16:01.879Z,16.3
2018-11-12T06:16:51.795Z,16.2
2018-11-12T06:17:42.628Z,16.2
2018-11-12T06:18:31.746Z,16.2
2018-11-12T06:19:21.325Z,16.2
2018-11-12T06:20:12.486Z,16.2
2018-11-12T06:21:01.689Z,16.2
2018-11-12T06:21:52.831Z,16.2
2018-11-12T06:22:41.896Z,16.2
2018-11-12T06:23:31.577Z,16.2
2018-11-12T06:24:22.764Z,16.2
2018-11-12T06:25:12.620Z,16.2
2018-11-12T06:26:03.254Z,16.2
2018-11-12T06:26:53.476Z,16.2
2018-11-12T06:27:43.441Z,16.2
2018-11-12T06:28:33.564Z,16.2
2018-11-12T06:29:23.119Z,16.2
2018-11-12T06:30:12.736Z,16.2
2018-11-12T06:31:03.488Z,16.2
2018-11-12T06:31:53.105Z,16.2
2018-11-12T06:32:43.159Z,16.2
2018-11-12T06:33:32.824Z,16.2
2018-11-12T06:34:23.343Z,16.2
2018-11-12T06:35:12.633Z,16.2
2018-11-12T06:36:03.821Z,16.2
2018-11-12T06:36:56.099Z,16.2
2018-11-12T06:37:43.694Z,16.2
2018-11-12T06:38:33.822Z,16.2
2018-11-12T06:39:23.806Z,16.2
2018-11-12T06:40:13.956Z,16.2
2018-11-12T06:41:03.901Z,16.2
2018-11-12T06:41:54.311Z,16.2
2018-11-12T06:42:45.886Z,16.2
2018-11-12T06:43:34.516Z,16.2
2018-11-12T06:44:23.878Z,16.2
2018-11-12T06:45:14.116Z,16.2
2018-11-12T06:46:04.500Z,16.2
2018-11-12T06:46:53.578Z,16.2
2018-11-12T06:47:43.663Z,16.2
2018-11-12T06:48:33.531Z,16.2
2018-11-12T06:49:26.158Z,16.2
2018-11-12T06:50:12.966Z,16.2
2018-11-12T06:51:03.538Z,16.2
2018-11-12T06:51:54.693Z,16.2
2018-11-12T06:52:44.084Z,16.2
2018-11-12T06:53:36.614Z,16.2
2018-11-12T06:54:24.043Z,16.2
2018-11-12T06:55:15.045Z,16.2
2018-11-12T06:56:04.902Z,16.2
2018-11-12T06:56:54.767Z,16.2
2018-11-12T06:57:45.145Z,16.2
2018-11-12T06:58:34.627Z,16.2
2018-11-12T06:59:26.186Z,16.2
2018-11-12T07:00:15.327Z,16.2
2018-11-12T07:01:05.754Z,16.2
2018-11-12T07:01:56.024Z,16.2
2018-11-12T07:02:45.203Z,16.2
2018-11-12T07:03:34.437Z,16.2
2018-11-12T07:04:25.604Z,16.2
2018-11-12T07:05:15.001Z,16.2
2018-11-12T07:06:04.837Z,16.2
2018-11-12T07:06:56.433Z,16.3
2018-11-12T07:07:46.045Z,16.2
2018-11-12T07:08:35.669Z,16.2
2018-11-12T07:09:25.726Z,16.2
2018-11-12T07:10:15.258Z,16.2
2018-11-12T07:11:06.355Z,16.2
2018-11-12T07:11:56.986Z,16.2
2018-11-12T07:12:45.566Z,16.2
2018-11-12T07:13:36.268Z,16.2
2018-11-12T07:14:25.144Z,16.2
2018-11-12T07:15:15.658Z,16.2
2018-11-12T07:16:06.397Z,16.3
2018-11-12T07:16:56.570Z,16.2
2018-11-12T07:17:45.428Z,16.2
2018-11-12T07:18:35.915Z,16.3
2018-11-12T07:19:26.400Z,16.3
2018-11-12T07:20:16.842Z,16.3
2018-11-12T07:21:07.287Z,16.2
2018-11-12T07:21:56.152Z,16.3
2018-11-12T07:22:46.540Z,16.3
2018-11-12T07:23:38.017Z,16.3
2018-11-12T07:24:26.334Z,16.3
2018-11-12T07:25:17.508Z,16.3
2018-11-12T07:26:06.920Z,16.3
2018-11-12T07:26:57.037Z,16.3
2018-11-12T07:27:47.229Z,16.3
2018-11-12T07:28:37.451Z,16.3
2018-11-12T07:29:27.069Z,16.3
2018-11-12T07:30:17.249Z,16.3
2018-11-12T07:31:07.596Z,16.3
2018-11-12T07:31:56.893Z,16.3
2018-11-12T07:32:47.408Z,16.3
2018-11-12T07:33:37.099Z,16.3
2018-11-12T07:34:27.713Z,16.3
2018-11-12T07:35:16.919Z,16.3
2018-11-12T07:36:06.929Z,16.3
2018-11-12T07:36:58.024Z,16.3
2018-11-12T07:37:47.611Z,16.3
2018-11-12T07:38:37.332Z,16.3
2018-11-12T07:39:28.154Z,16.3
2018-11-12T07:40:17.253Z,16.3
2018-11-12T07:41:08.151Z,16.3
2018-11-12T07:41:59.280Z,16.3
2018-11-12T07:42:47.573Z,16.3
2018-11-12T07:43:38.818Z,16.3
2018-11-12T07:44:26.615Z,16.3
2018-11-12T07:45:17.799Z,16.3
2018-11-12T07:46:08.106Z,16.3
2018-11-12T07:46:57.381Z,16.3
2018-11-12T07:47:48.240Z,16.3
2018-11-12T07:48:39.259Z,16.3
2018-11-12T07:49:28.711Z,16.3
2018-11-12T07:50:17.997Z,16.3
2018-11-12T07:51:08.758Z,16.3
2018-11-12T07:51:58.698Z,16.3
2018-11-12T07:52:48.370Z,16.3
2018-11-12T07:53:39.543Z,16.3
2018-11-12T07:54:30.128Z,16.4
2018-11-12T07:55:18.047Z,16.4
2018-11-12T07:56:09.836Z,16.4
2018-11-12T07:56:58.846Z,16.4
2018-11-12T07:57:49.351Z,16.4
2018-11-12T07:58:38.593Z,16.4
2018-11-12T07:59:29.627Z,16.4
2018-11-12T08:00:18.767Z,16.5
2018-11-12T08:01:09.907Z,16.6
2018-11-12T08:02:00.105Z,16.6
2018-11-12T08:02:48.809Z,16.6
2018-11-12T08:03:56.567Z,16.7
2018-11-12T08:04:30.424Z,16.7
2018-11-12T08:05:20.537Z,16.8
2018-11-12T08:06:09.122Z,16.8
2018-11-12T08:07:00.741Z,16.9
2018-11-12T08:07:50.117Z,16.9
2018-11-12T08:08:40.703Z,16.9
2018-11-12T08:09:31.358Z,16.9
2018-11-12T08:10:20.037Z,16.9
2018-11-12T08:11:09.215Z,16.9
2018-11-12T08:12:01.481Z,16.9
2018-11-12T08:21:10.131Z,17.1
2018-11-12T08:22:00.650Z,17.1
2018-11-12T08:22:51.909Z,17.1
2018-11-12T08:23:41.224Z,17.1
2018-11-12T08:24:32.584Z,17.1
2018-11-12T08:25:21.214Z,17.1
2018-11-12T08:26:11.579Z,17.1
2018-11-12T08:27:00.769Z,17.1
2018-11-12T08:27:50.651Z,17.1
2018-11-12T08:28:40.299Z,17.1
2018-11-12T08:29:31.125Z,17.1
2018-11-12T08:30:21.685Z,17.2
2018-11-12T08:31:11.789Z,17.2
2018-11-12T08:32:01.687Z,17.2
2018-11-12T08:32:51.190Z,17.2
2018-11-12T08:33:41.503Z,17.2
2018-11-12T08:34:32.051Z,17.2
2018-11-12T08:35:21.582Z,17.2
2018-11-12T08:36:12.703Z,17.2
2018-11-12T08:37:01.531Z,17.3
2018-11-12T08:37:52.655Z,17.2
2018-11-12T08:38:41.557Z,17.2
2018-11-12T08:39:33.529Z,17.2
2018-11-12T08:40:22.896Z,17.2
2018-11-12T08:41:13.144Z,17.2
2018-11-12T08:42:01.540Z,17.2
2018-11-12T08:42:53.802Z,17.2
2018-11-12T08:43:42.815Z,17.3
2018-11-12T08:44:30.678Z,17.3
2018-11-12T08:45:22.705Z,17.3
2018-11-12T08:46:13.253Z,17.3
2018-11-12T08:47:01.743Z,17.3
2018-11-12T08:47:51.740Z,17.3
2018-11-12T08:48:42.466Z,17.2
2018-11-12T08:49:36.740Z,17.2
2018-11-12T08:50:22.491Z,17.2
2018-11-12T08:51:13.443Z,17.3
2018-11-12T08:52:02.881Z,17.3
2018-11-12T09:08:46.236Z,17.2
2018-11-12T09:09:36.182Z,17.2
2018-11-12T09:10:26.799Z,17.2
2018-11-12T09:11:16.328Z,17.2
2018-11-12T09:12:06.646Z,17.3
2018-11-12T09:12:57.024Z,17.3
2018-11-12T09:13:50.109Z,17.3
2018-11-12T09:14:37.571Z,17.3
2018-11-12T09:15:26.163Z,17.3
2018-11-12T09:16:16.720Z,17.3
2018-11-12T09:17:06.429Z,17.3
2018-11-12T09:17:56.711Z,17.3
2018-11-12T09:18:46.549Z,17.3
2018-11-12T09:19:37.292Z,17.3
2018-11-12T09:20:28.049Z,17.3
2018-11-12T09:21:16.309Z,17.4
2018-11-12T09:22:07.173Z,17.3
2018-11-12T09:22:58.011Z,17.3
2018-11-12T09:23:47.895Z,17.4
2018-11-12T09:24:37.817Z,17.4
2018-11-12T09:25:27.653Z,17.4
2018-11-12T09:26:18.095Z,17.4
2018-11-12T09:27:05.940Z,17.4
2018-11-12T09:27:56.407Z,17.4
2018-11-12T09:28:46.282Z,17.4
2018-11-12T09:29:37.520Z,17.4
2018-11-12T09:30:28.000Z,17.4
2018-11-12T09:31:30.995Z,17.4
2018-11-12T09:32:08.197Z,17.4
2018-11-12T09:32:59.107Z,17.4
2018-11-12T09:33:48.025Z,17.4
2018-11-12T09:34:39.230Z,17.4
2018-11-12T09:35:28.910Z,17.4
2018-11-12T09:36:18.427Z,17.4
2018-11-12T09:37:08.584Z,17.4
2018-11-12T09:37:59.401Z,17.4
2018-11-12T09:38:48.395Z,17.4
2018-11-12T09:39:39.097Z,17.4
2018-11-12T09:40:29.005Z,17.4
2018-11-12T09:41:18.206Z,17.4
2018-11-12T09:42:09.589Z,17.4
2018-11-12T09:42:59.538Z,17.4
2018-11-12T09:43:48.669Z,17.4
2018-11-12T09:44:39.534Z,17.4
2018-11-12T09:45:29.106Z,17.4
2018-11-12T09:46:20.216Z,17.4
2018-11-12T09:47:08.174Z,17.4
2018-11-12T09:48:01.777Z,17.4
2018-11-12T09:48:51.087Z,17.4
2018-11-12T09:49:40.418Z,17.4
2018-11-12T09:50:29.623Z,17.4
2018-11-12T09:51:19.494Z,17.4
2018-11-12T09:52:09.046Z,17.4
2018-11-12T09:52:59.918Z,17.4
2018-11-12T09:53:52.517Z,17.4
2018-11-12T09:54:43.877Z,17.4
2018-11-12T09:55:29.633Z,17.4
2018-11-12T09:56:21.106Z,17.4
2018-11-12T09:57:11.268Z,17.4
2018-11-12T09:58:00.523Z,17.4
2018-11-12T09:58:49.848Z,17.4
2018-11-12T09:59:39.983Z,17.4
2018-11-12T10:00:35.820Z,17.4
2018-11-12T10:01:27.752Z,17.4
2018-11-12T10:02:21.411Z,17.4
2018-11-12T10:03:17.031Z,17.4
2018-11-12T10:04:08.369Z,17.4
2018-11-12T10:04:57.300Z,17.4
2018-11-12T10:05:42.551Z,17.4
2018-11-12T10:06:46.321Z,17.4
2018-11-12T10:07:39.450Z,17.4
2018-11-12T10:08:20.082Z,17.4
2018-11-12T10:09:06.249Z,17.4
2018-11-12T10:10:26.191Z,17.5
2018-11-12T10:11:20.730Z,17.4
2018-11-12T10:12:16.587Z,17.4
2018-11-12T10:13:26.217Z,17.4
2018-11-12T10:14:20.976Z,17.4
2018-11-12T10:15:08.720Z,17.4
2018-11-12T10:16:22.110Z,17.4
2018-11-12T10:17:38.359Z,17.4
2018-11-12T10:18:15.007Z,17.5
2018-11-12T10:18:34.133Z,17.5
2018-11-12T10:19:24.465Z,17.5
2018-11-12T10:20:15.162Z,17.5
2018-11-12T10:21:03.877Z,17.4
2018-11-12T10:21:54.934Z,17.5
2018-11-12T10:22:44.355Z,17.5
2018-11-12T10:23:35.251Z,17.5
2018-11-12T10:24:23.320Z,17.5
2018-11-12T10:25:14.535Z,17.4
2018-11-12T10:26:04.289Z,17.4
2018-11-12T10:26:54.338Z,17.5
2018-11-12T10:27:44.442Z,17.5
2018-11-12T10:28:34.941Z,17.5
2018-11-12T10:29:24.701Z,17.5
2018-11-12T10:30:14.739Z,17.5
2018-11-12T10:31:05.097Z,17.5
2018-11-12T10:31:55.094Z,17.5
2018-11-12T10:32:45.142Z,17.5
2018-11-12T10:33:36.124Z,17.5
2018-11-12T10:34:24.948Z,17.5
2018-11-12T10:35:14.758Z,17.5
2018-11-12T10:36:04.708Z,17.5
2018-11-12T10:36:55.310Z,17.5
2018-11-12T10:37:45.383Z,17.5
2018-11-12T10:38:34.799Z,17.5
2018-11-12T10:39:25.164Z,17.5
2018-11-12T10:40:15.733Z,17.5
2018-11-12T10:41:06.109Z,17.5
2018-11-12T10:41:56.273Z,17.5
2018-11-12T10:42:48.439Z,17.6
2018-11-12T10:43:36.733Z,17.5
2018-11-12T10:44:25.683Z,17.6
2018-11-12T10:45:15.559Z,17.5
2018-11-12T10:46:06.375Z,17.6
2018-11-12T10:46:56.387Z,17.6
2018-11-12T10:47:46.584Z,17.6
2018-11-12T10:48:37.005Z,17.6
2018-11-12T10:49:27.140Z,17.6
2018-11-12T10:50:16.413Z,17.6
2018-11-12T10:51:12.376Z,17.6
2018-11-12T10:51:57.289Z,17.6
2018-11-12T10:52:46.517Z,17.6
2018-11-12T10:53:38.386Z,17.6
2018-11-12T10:54:27.672Z,17.6
2018-11-12T10:55:21.237Z,17.6
2018-11-12T10:56:11.829Z,17.6
2018-11-12T10:56:57.430Z,17.6
2018-11-12T10:57:47.453Z,17.6
2018-11-12T10:58:39.023Z,17.6
2018-11-12T10:59:27.329Z,17.6
2018-11-12T11:00:19.138Z,17.6
2018-11-12T11:01:06.862Z,17.6
2018-11-12T11:01:57.515Z,17.6
2018-11-12T11:02:46.767Z,17.6
2018-11-12T11:03:37.687Z,17.6
2018-11-12T11:04:28.504Z,17.6
2018-11-12T11:05:17.437Z,17.6
2018-11-12T11:06:06.222Z,17.6
2018-11-12T11:06:58.392Z,17.6
2018-11-12T11:07:47.719Z,17.6
2018-11-12T11:08:38.287Z,17.6
2018-11-12T11:09:28.257Z,17.6
2018-11-12T11:10:17.429Z,17.6
2018-11-12T11:11:08.186Z,17.6
2018-11-12T11:11:58.067Z,17.6
2018-11-12T11:12:48.611Z,17.6
2018-11-12T11:13:38.132Z,17.6
2018-11-12T11:14:29.039Z,17.6
2018-11-12T11:15:19.231Z,17.6
2018-11-12T11:16:07.891Z,17.7
2018-11-12T11:16:58.799Z,17.6
2018-11-12T11:17:48.164Z,17.7
2018-11-12T11:18:38.973Z,17.7
2018-11-12T11:19:29.574Z,17.7
2018-11-12T11:20:18.234Z,17.7
2018-11-12T11:21:08.856Z,17.7
2018-11-12T11:21:59.595Z,17.7
2018-11-12T11:22:48.541Z,17.7
2018-11-12T11:23:39.578Z,17.7
2018-11-12T11:24:29.888Z,17.7
2018-11-12T11:25:18.494Z,17.7
2018-11-12T11:26:09.423Z,17.7
2018-11-12T11:26:59.558Z,17.7
2018-11-12T11:27:48.333Z,17.7
2018-11-12T11:28:40.506Z,17.7
2018-11-12T11:29:29.698Z,17.7
2018-11-12T11:30:18.614Z,17.7
2018-11-12T11:31:09.899Z,17.7
2018-11-12T11:31:59.143Z,17.8
2018-11-12T11:32:49.857Z,17.8
2018-11-12T11:33:39.263Z,17.7
2018-11-12T11:34:29.068Z,17.8
2018-11-12T11:35:19.655Z,17.8
2018-11-12T11:36:09.785Z,17.7
2018-11-12T11:36:59.682Z,17.7
2018-11-12T11:37:49.639Z,17.8
2018-11-12T11:38:39.549Z,17.7
2018-11-12T11:39:29.078Z,17.8
2018-11-12T11:40:21.976Z,17.8
2018-11-12T11:41:10.268Z,17.8
2018-11-12T11:41:59.802Z,17.8
2018-11-12T11:42:49.679Z,17.8
2018-11-12T11:43:39.676Z,17.8
2018-11-12T11:44:29.235Z,17.8
2018-11-12T11:45:20.131Z,17.8
2018-11-12T11:46:10.216Z,17.8
2018-11-12T11:47:00.818Z,17.8
2018-11-12T11:47:51.596Z,17.8
2018-11-12T11:48:41.148Z,17.8
2018-11-12T11:49:30.185Z,17.8
2018-11-12T11:50:22.204Z,17.8
2018-11-12T11:51:10.832Z,17.8
2018-11-12T11:52:01.027Z,17.8
2018-11-12T11:52:51.151Z,17.8
2018-11-12T11:53:40.353Z,17.8
2018-11-12T11:54:30.638Z,17.8
2018-11-12T11:55:20.324Z,17.8
2018-11-12T11:56:10.849Z,17.8
2018-11-12T11:57:01.904Z,17.8
2018-11-12T11:57:52.523Z,17.8
2018-11-12T11:58:40.920Z,17.8
2018-11-12T11:59:31.236Z,17.8
2018-11-12T12:00:21.588Z,17.8
2018-11-12T12:01:13.386Z,17.8
2018-11-12T12:02:01.735Z,17.8
2018-11-12T12:02:52.372Z,17.8
2018-11-12T12:03:41.041Z,17.8
2018-11-12T12:04:31.679Z,17.8
2018-11-12T12:05:22.111Z,17.8
2018-11-12T12:06:12.136Z,17.8
2018-11-12T12:07:01.933Z,17.8
2018-11-12T12:07:52.249Z,17.8
2018-11-12T12:08:42.368Z,17.8
2018-11-12T12:09:32.467Z,17.9
2018-11-12T12:10:23.014Z,17.9
2018-11-12T12:11:12.986Z,17.9
2018-11-12T12:12:02.959Z,17.9
2018-11-12T12:12:53.981Z,17.9